Stelle, Illinois
Current Conditions -  °F | °C
As of 3:35 PM on Monday 24 Nov 2014 (Local Time) from KIKK Reporting Station
Haze Haze  
Wind Chill: 20°   Ceiling: 1000
Heat Index: 32°   Visibility: 5mi
Dew Point: 30°   Wind: 21mph
Humidity: 92%   Direction: 250°WSW
Pressure: 29.63"   Gusts: 29mph
Location:  40.9777°N, 88.1923°W
Report Text: KIKK 242135Z AUTO 25018G25KT 5SM BR BKN010 OVC015 00/M01 A2963 RMK AO2 T00001011
Loading
Personal Weather Stations






























Interactive Weather Map New forecast layout! Learn more

10-Day Weather Forecast

Advertisements
Track Severe Weather on mobile